createdAt,value
2018-03-20T00:00:49.561Z,0.00
2018-03-20T00:02:42.464Z,0.00
2018-03-20T00:03:42.453Z,0.00
2018-03-20T00:05:35.365Z,0.00
2018-03-20T00:06:35.344Z,0.00
2018-03-20T00:08:28.225Z,0.00
2018-03-20T00:09:28.235Z,0.00
2018-03-20T00:11:21.136Z,0.00
2018-03-20T00:12:21.128Z,0.00
2018-03-20T00:14:14.009Z,0.00
2018-03-20T00:15:14.024Z,0.00
2018-03-20T00:17:06.921Z,0.00
2018-03-20T00:18:06.910Z,0.00
2018-03-20T00:19:59.795Z,0.00
2018-03-20T00:20:59.804Z,0.00
2018-03-20T00:22:52.708Z,0.00
2018-03-20T00:23:52.697Z,0.00
2018-03-20T00:25:45.580Z,0.00
2018-03-20T00:26:45.589Z,0.00
2018-03-20T00:28:38.490Z,0.00
2018-03-20T00:29:38.485Z,0.00
2018-03-20T00:31:31.368Z,0.00
2018-03-20T00:32:31.379Z,0.00
2018-03-20T00:34:24.281Z,0.00
2018-03-20T00:35:24.271Z,0.00
2018-03-20T00:37:17.171Z,0.00
2018-03-20T00:38:17.162Z,0.00
2018-03-20T00:40:10.050Z,0.00
2018-03-20T00:41:10.065Z,0.00
2018-03-20T00:43:03.959Z,0.00
2018-03-20T00:44:03.952Z,0.00
2018-03-20T00:45:56.834Z,0.00
2018-03-20T00:46:56.845Z,0.00
2018-03-20T00:48:49.747Z,0.00
2018-03-20T00:49:49.740Z,0.00
2018-03-20T00:51:42.625Z,0.00
2018-03-20T00:52:42.635Z,0.00
2018-03-20T00:54:35.540Z,0.00
2018-03-20T00:55:35.532Z,0.00
2018-03-20T00:57:28.415Z,0.00
2018-03-20T00:58:28.431Z,0.00
2018-03-20T01:00:21.335Z,0.00
2018-03-20T01:01:21.325Z,0.00
2018-03-20T01:03:14.215Z,0.00
2018-03-20T01:04:14.224Z,0.00
2018-03-20T01:06:07.130Z,0.00
2018-03-20T01:07:07.122Z,0.00
2018-03-20T01:09:00.035Z,0.00
2018-03-20T01:10:00.017Z,0.00
2018-03-20T01:11:52.903Z,0.00
2018-03-20T01:12:52.911Z,0.00
2018-03-20T01:14:45.821Z,0.00
2018-03-20T01:15:45.808Z,0.00
2018-03-20T01:17:38.702Z,0.00
2018-03-20T01:18:38.714Z,0.00
2018-03-20T01:20:31.617Z,0.00
2018-03-20T01:21:31.610Z,0.00
2018-03-20T01:23:24.497Z,0.00
2018-03-20T01:24:24.508Z,0.00
2018-03-20T01:26:17.411Z,0.00
2018-03-20T01:27:17.406Z,0.00
2018-03-20T01:29:10.312Z,0.00
2018-03-20T01:30:10.301Z,0.00
2018-03-20T01:32:03.205Z,0.00
2018-03-20T01:33:03.196Z,0.00
2018-03-20T01:34:56.100Z,0.00
2018-03-20T01:35:56.091Z,0.00
2018-03-20T01:37:48.981Z,0.00
2018-03-20T01:38:48.992Z,0.00
2018-03-20T01:40:41.897Z,0.00
2018-03-20T01:41:41.887Z,0.00
2018-03-20T01:43:34.779Z,0.00
2018-03-20T01:44:34.789Z,0.00
2018-03-20T01:46:27.695Z,0.00
2018-03-20T01:47:27.687Z,0.00
2018-03-20T01:49:20.573Z,0.00
2018-03-20T01:50:20.585Z,0.00
2018-03-20T01:52:13.493Z,0.00
2018-03-20T01:53:13.481Z,0.00
2018-03-20T01:55:06.367Z,0.00
2018-03-20T01:56:06.380Z,0.00
2018-03-20T01:57:59.286Z,0.00
2018-03-20T01:58:59.278Z,0.00
2018-03-20T02:00:52.163Z,0.00
2018-03-20T02:01:52.174Z,0.00
2018-03-20T02:03:45.085Z,0.00
2018-03-20T02:04:45.073Z,0.00
2018-03-20T02:06:37.975Z,0.00
2018-03-20T02:07:37.969Z,0.00
2018-03-20T02:09:30.861Z,0.00
2018-03-20T02:10:30.871Z,0.00
2018-03-20T02:12:23.791Z,0.00
2018-03-20T02:13:23.770Z,0.00
2018-03-20T02:15:16.660Z,0.00
2018-03-20T02:16:16.672Z,0.00
2018-03-20T02:18:09.577Z,0.00
2018-03-20T02:19:09.570Z,0.00
2018-03-20T02:21:02.456Z,0.00
2018-03-20T02:22:02.471Z,0.00
2018-03-20T02:23:55.374Z,0.00
2018-03-20T02:24:55.365Z,0.00
2018-03-20T02:26:48.254Z,0.00
2018-03-20T02:27:48.266Z,0.00
2018-03-20T02:29:41.176Z,0.00
2018-03-20T02:30:41.169Z,0.00
2018-03-20T02:32:34.052Z,0.00
2018-03-20T02:33:34.066Z,0.00
2018-03-20T02:35:26.969Z,0.00
2018-03-20T02:36:26.962Z,0.00
2018-03-20T02:38:19.869Z,0.00
2018-03-20T02:39:19.863Z,0.00
2018-03-20T02:41:13.744Z,0.00
2018-03-20T02:42:13.759Z,0.00
2018-03-20T02:44:06.671Z,0.00
2018-03-20T02:45:06.658Z,0.00
2018-03-20T02:46:59.546Z,0.00
2018-03-20T02:47:59.559Z,0.00
2018-03-20T02:49:52.465Z,0.00
2018-03-20T02:50:52.458Z,0.00
2018-03-20T02:52:45.351Z,0.00
2018-03-20T02:53:45.363Z,0.00
2018-03-20T02:55:38.271Z,0.00
2018-03-20T02:56:38.266Z,0.00
2018-03-20T02:58:31.195Z,0.00
2018-03-20T02:59:31.178Z,0.00
2018-03-20T03:01:25.213Z,0.00
2018-03-20T03:02:25.224Z,0.00
2018-03-20T03:04:18.135Z,0.00
2018-03-20T03:05:18.131Z,0.00
2018-03-20T03:07:11.032Z,0.00
2018-03-20T03:08:11.030Z,0.00
2018-03-20T03:10:03.937Z,0.00
2018-03-20T03:11:03.930Z,0.00
2018-03-20T03:12:56.821Z,0.00
2018-03-20T03:13:56.830Z,0.00
2018-03-20T03:15:49.743Z,0.00
2018-03-20T03:16:49.738Z,0.00
2018-03-20T03:18:42.621Z,0.00
2018-03-20T03:19:42.637Z,0.00
2018-03-20T03:21:35.541Z,0.00
2018-03-20T03:22:35.530Z,0.00
2018-03-20T03:24:28.423Z,0.00
2018-03-20T03:25:28.430Z,0.00
2018-03-20T03:27:21.336Z,0.00
2018-03-20T03:28:21.329Z,0.00
2018-03-20T03:30:14.262Z,0.00
2018-03-20T03:31:14.230Z,0.00
2018-03-20T03:33:07.116Z,0.00
2018-03-20T03:34:07.129Z,0.00
2018-03-20T03:36:00.034Z,0.00
2018-03-20T03:37:00.029Z,0.00
2018-03-20T03:38:52.918Z,0.00
2018-03-20T03:39:52.929Z,0.00
2018-03-20T03:41:45.833Z,0.00
2018-03-20T03:42:45.825Z,0.00
2018-03-20T03:44:38.714Z,0.00
2018-03-20T03:45:38.726Z,0.00
2018-03-20T03:47:31.636Z,0.00
2018-03-20T03:48:31.626Z,0.00
2018-03-20T03:50:24.523Z,0.00
2018-03-20T03:51:24.579Z,0.00
2018-03-20T03:53:17.437Z,0.00
2018-03-20T03:54:17.431Z,0.00
2018-03-20T03:56:10.336Z,0.00
2018-03-20T03:57:10.332Z,0.00
2018-03-20T03:59:03.222Z,0.00
2018-03-20T04:00:03.228Z,0.00
2018-03-20T04:01:56.132Z,0.00
2018-03-20T04:02:56.125Z,0.00
2018-03-20T04:04:49.013Z,0.00
2018-03-20T04:05:49.042Z,0.00
2018-03-20T04:07:41.928Z,0.00
2018-03-20T04:08:41.920Z,0.00
2018-03-20T04:10:34.806Z,0.00
2018-03-20T04:11:34.819Z,0.00
2018-03-20T04:13:27.724Z,0.00
2018-03-20T04:14:27.715Z,0.00
2018-03-20T04:16:20.606Z,0.00
2018-03-20T04:17:20.614Z,0.00
2018-03-20T04:19:13.521Z,0.00
2018-03-20T04:20:13.515Z,0.00
2018-03-20T04:22:06.399Z,0.00
2018-03-20T04:23:06.410Z,0.00
2018-03-20T04:24:59.317Z,0.00
2018-03-20T04:25:59.309Z,0.00
2018-03-20T04:27:52.220Z,0.00
2018-03-20T04:28:52.209Z,0.00
2018-03-20T04:30:45.098Z,0.00
2018-03-20T04:31:45.112Z,0.00
2018-03-20T04:33:38.012Z,0.00
2018-03-20T04:34:38.005Z,0.00
2018-03-20T04:36:30.890Z,0.00
2018-03-20T04:37:30.901Z,0.00
2018-03-20T04:39:23.805Z,0.00
2018-03-20T04:40:23.799Z,0.00
2018-03-20T04:42:16.686Z,0.00
2018-03-20T04:43:16.697Z,0.00
2018-03-20T04:45:09.604Z,0.00
2018-03-20T04:46:09.592Z,0.00
2018-03-20T04:48:02.512Z,0.00
2018-03-20T04:49:02.494Z,0.00
2018-03-20T04:50:55.381Z,0.00
2018-03-20T04:51:55.392Z,0.00
2018-03-20T04:53:48.297Z,0.00
2018-03-20T04:54:48.293Z,0.00
2018-03-20T04:56:41.187Z,0.00
2018-03-20T04:57:41.205Z,0.00
2018-03-20T04:59:34.102Z,0.00
2018-03-20T05:00:34.096Z,0.00
2018-03-20T05:02:26.988Z,0.00
2018-03-20T05:03:27.003Z,0.00
2018-03-20T05:05:19.908Z,4.00
2018-03-20T05:06:19.901Z,4.00
2018-03-20T05:08:12.794Z,4.00
2018-03-20T05:09:12.806Z,4.00
2018-03-20T05:11:05.712Z,8.00
2018-03-20T05:12:05.705Z,4.00
2018-03-20T05:13:58.593Z,12.00
2018-03-20T05:14:58.605Z,12.00
2018-03-20T05:16:51.509Z,12.00
2018-03-20T05:17:51.502Z,16.00
2018-03-20T05:19:44.410Z,28.00
2018-03-20T05:20:44.402Z,36.00
2018-03-20T05:22:37.290Z,48.00
2018-03-20T05:23:37.309Z,56.00
2018-03-20T05:25:31.202Z,72.00
2018-03-20T05:26:31.201Z,68.00
2018-03-20T05:28:24.092Z,68.00
2018-03-20T05:29:24.105Z,76.00
2018-03-20T05:31:17.018Z,84.00
2018-03-20T05:32:17.011Z,104.00
2018-03-20T05:34:09.900Z,104.00
2018-03-20T05:35:09.913Z,112.00
2018-03-20T05:37:02.820Z,152.00
2018-03-20T05:38:02.814Z,164.00
2018-03-20T05:39:55.707Z,188.00
2018-03-20T05:40:55.718Z,196.00
2018-03-20T05:42:48.629Z,240.00
2018-03-20T05:43:48.624Z,252.00
2018-03-20T05:45:41.532Z,296.00
2018-03-20T05:46:41.522Z,328.00
2018-03-20T05:48:34.412Z,340.00
2018-03-20T05:49:34.423Z,368.00
2018-03-20T05:51:27.378Z,348.00
2018-03-20T05:52:27.328Z,372.00
2018-03-20T05:54:20.218Z,448.00
2018-03-20T05:55:20.230Z,424.00
2018-03-20T05:57:13.141Z,360.00
2018-03-20T05:58:13.134Z,448.00
2018-03-20T06:00:06.025Z,540.00
2018-03-20T06:01:06.036Z,556.00
2018-03-20T06:02:58.952Z,612.00
2018-03-20T06:03:58.947Z,632.00
2018-03-20T06:05:51.855Z,680.00
2018-03-20T06:06:51.848Z,688.00
2018-03-20T06:08:44.735Z,608.00
2018-03-20T06:09:44.751Z,536.00
2018-03-20T06:11:37.654Z,592.00
2018-03-20T06:12:37.646Z,624.00
2018-03-20T06:14:30.537Z,692.00
2018-03-20T06:15:30.583Z,732.00
2018-03-20T06:17:23.455Z,668.00
2018-03-20T06:18:23.449Z,876.00
2018-03-20T06:20:16.346Z,908.00
2018-03-20T06:21:16.353Z,952.00
2018-03-20T06:23:09.262Z,1228.00
2018-03-20T06:24:09.254Z,1252.00
2018-03-20T06:26:02.152Z,1400.00
2018-03-20T06:27:02.154Z,1348.00
2018-03-20T06:28:55.061Z,1444.00
2018-03-20T06:29:55.053Z,1296.00
2018-03-20T06:31:47.947Z,1380.00
2018-03-20T06:32:47.969Z,1360.00
2018-03-20T06:34:40.871Z,1464.00
2018-03-20T06:35:40.863Z,1684.00
2018-03-20T06:37:33.790Z,1680.00
2018-03-20T06:38:33.771Z,1760.00
2018-03-20T06:40:26.665Z,1628.00
2018-03-20T06:41:26.676Z,1592.00
2018-03-20T06:43:19.590Z,1584.00
2018-03-20T06:44:19.583Z,1840.00
2018-03-20T06:46:12.478Z,1600.00
2018-03-20T06:47:12.493Z,1420.00
2018-03-20T06:49:05.411Z,1408.00
2018-03-20T06:50:05.403Z,1308.00
2018-03-20T06:51:58.291Z,1468.00
2018-03-20T06:52:58.305Z,1528.00
2018-03-20T06:54:51.211Z,1416.00
2018-03-20T06:55:51.205Z,1348.00
2018-03-20T06:57:44.095Z,1396.00
2018-03-20T06:58:44.107Z,1384.00
2018-03-20T07:00:37.019Z,1264.00
2018-03-20T07:01:37.012Z,1320.00
2018-03-20T07:03:29.918Z,1556.00
2018-03-20T07:04:29.915Z,1640.00
2018-03-20T07:06:22.825Z,2020.00
2018-03-20T07:07:22.820Z,1640.00
2018-03-20T07:09:15.734Z,1412.00
2018-03-20T07:10:15.722Z,1852.00
2018-03-20T07:12:08.656Z,1864.00
2018-03-20T07:13:08.656Z,1724.00
2018-03-20T07:15:01.574Z,1496.00
2018-03-20T07:16:01.569Z,1348.00
2018-03-20T07:17:54.458Z,1232.00
2018-03-20T07:18:54.472Z,1224.00
2018-03-20T07:20:47.381Z,1572.00
2018-03-20T07:21:47.375Z,1696.00
2018-03-20T07:23:40.263Z,1780.00
2018-03-20T07:24:40.276Z,2012.00
2018-03-20T07:26:33.190Z,2768.00
2018-03-20T07:27:33.179Z,3148.00
2018-03-20T07:29:26.111Z,4172.00
2018-03-20T07:30:26.081Z,4428.00
2018-03-20T07:32:18.993Z,4112.00
2018-03-20T07:33:18.991Z,4576.00
2018-03-20T07:35:11.897Z,4604.00
2018-03-20T07:36:11.892Z,4324.00
2018-03-20T07:38:04.784Z,4836.00
2018-03-20T07:39:04.796Z,5584.00
2018-03-20T07:40:57.708Z,5892.00
2018-03-20T07:41:57.702Z,4868.00
2018-03-20T07:43:50.594Z,5796.00
2018-03-20T07:44:50.609Z,6016.00
2018-03-20T07:46:43.517Z,7080.00
2018-03-20T07:47:43.515Z,6448.00
2018-03-20T07:49:36.407Z,6048.00
2018-03-20T07:50:36.428Z,7584.00
2018-03-20T07:52:29.501Z,6524.00
2018-03-20T07:53:29.498Z,8468.00
2018-03-20T07:55:22.399Z,5540.00
2018-03-20T07:56:22.431Z,7676.00
2018-03-20T07:58:15.317Z,6316.00
2018-03-20T07:59:15.311Z,5664.00
2018-03-20T08:01:08.228Z,5144.00
2018-03-20T08:02:08.222Z,7176.00
2018-03-20T08:04:01.121Z,5700.00
2018-03-20T08:05:01.132Z,8316.00
2018-03-20T08:06:54.046Z,6568.00
2018-03-20T08:07:54.061Z,8632.00
2018-03-20T08:09:46.937Z,8828.00
2018-03-20T08:10:46.950Z,8476.00
2018-03-20T08:12:39.861Z,7416.00
2018-03-20T08:13:39.863Z,7924.00
2018-03-20T08:15:32.755Z,6716.00
2018-03-20T08:16:32.771Z,8112.00
2018-03-20T08:18:25.678Z,7076.00
2018-03-20T08:19:25.716Z,9228.00
2018-03-20T08:21:18.577Z,7660.00
2018-03-20T08:22:18.591Z,6412.00
2018-03-20T08:24:11.505Z,7428.00
2018-03-20T08:25:11.502Z,7216.00
2018-03-20T08:27:04.426Z,6764.00
2018-03-20T08:28:04.412Z,7348.00
2018-03-20T08:29:57.307Z,8060.00
2018-03-20T08:30:57.320Z,7980.00
2018-03-20T08:32:50.234Z,4960.00
2018-03-20T08:33:50.229Z,4360.00
2018-03-20T08:35:43.121Z,5324.00
2018-03-20T08:36:43.142Z,5912.00
2018-03-20T08:38:36.048Z,6220.00
2018-03-20T08:39:36.044Z,4576.00
2018-03-20T08:41:28.946Z,5168.00
2018-03-20T08:42:28.962Z,5648.00
2018-03-20T08:44:21.921Z,4592.00
2018-03-20T08:45:21.871Z,5640.00
2018-03-20T08:47:14.760Z,4880.00
2018-03-20T08:48:14.775Z,4776.00
2018-03-20T08:50:07.689Z,5700.00
2018-03-20T08:51:07.683Z,4576.00
2018-03-20T08:53:00.602Z,4480.00
2018-03-20T08:54:00.601Z,3720.00
2018-03-20T08:55:53.492Z,4596.00
2018-03-20T08:56:53.509Z,4028.00
2018-03-20T08:58:46.424Z,3564.00
2018-03-20T08:59:46.419Z,3880.00
2018-03-20T09:01:39.316Z,4572.00
2018-03-20T09:02:39.325Z,3796.00
2018-03-20T09:04:32.243Z,3576.00
2018-03-20T09:05:32.238Z,3816.00
2018-03-20T09:07:25.136Z,3424.00
2018-03-20T09:08:25.151Z,3364.00
2018-03-20T09:10:18.061Z,3244.00
2018-03-20T09:11:18.058Z,3248.00
2018-03-20T09:13:10.954Z,3216.00
2018-03-20T09:14:10.966Z,3232.00
2018-03-20T09:16:03.877Z,3212.00
2018-03-20T09:17:03.879Z,3208.00
2018-03-20T09:18:56.790Z,3268.00
2018-03-20T09:19:56.785Z,3204.00
2018-03-20T09:21:49.695Z,3292.00
2018-03-20T09:22:49.689Z,3376.00
2018-03-20T09:24:42.600Z,3228.00
2018-03-20T09:25:42.597Z,3228.00
2018-03-20T09:27:35.491Z,3172.00
2018-03-20T09:28:35.513Z,3124.00
2018-03-20T09:30:28.417Z,3120.00
2018-03-20T09:31:28.419Z,3124.00
2018-03-20T09:33:21.309Z,3156.00
2018-03-20T09:34:21.322Z,3092.00
2018-03-20T09:36:14.234Z,3060.00
2018-03-20T09:37:14.229Z,3520.00
2018-03-20T09:39:07.122Z,3096.00
2018-03-20T09:40:07.139Z,3132.00
2018-03-20T09:42:00.049Z,3252.00
2018-03-20T09:43:00.044Z,3100.00
2018-03-20T09:44:52.940Z,3080.00
2018-03-20T09:45:52.961Z,3060.00
2018-03-20T09:47:45.878Z,3036.00
2018-03-20T09:48:45.862Z,3040.00
2018-03-20T09:50:38.776Z,2992.00
2018-03-20T09:51:38.771Z,3072.00
2018-03-20T09:53:31.670Z,3208.00
2018-03-20T09:54:31.685Z,2944.00
2018-03-20T09:56:24.598Z,3040.00
2018-03-20T09:57:24.601Z,3048.00
2018-03-20T09:59:17.488Z,2880.00
2018-03-20T10:00:17.554Z,2940.00
2018-03-20T10:02:10.416Z,2868.00
2018-03-20T10:03:10.413Z,2924.00
2018-03-20T10:05:03.317Z,2868.00
2018-03-20T10:06:03.330Z,2824.00
2018-03-20T10:07:56.239Z,3124.00
2018-03-20T10:08:56.233Z,2880.00
2018-03-20T10:10:49.128Z,3092.00
2018-03-20T10:11:49.144Z,2856.00
2018-03-20T10:13:42.066Z,2908.00
2018-03-20T10:14:42.061Z,2828.00
2018-03-20T10:16:34.954Z,2728.00
2018-03-20T10:17:34.969Z,2740.00
2018-03-20T10:19:27.884Z,2756.00
2018-03-20T10:20:27.878Z,2936.00
2018-03-20T10:22:20.790Z,2944.00
2018-03-20T10:23:20.791Z,2940.00
2018-03-20T10:25:13.682Z,3056.00
2018-03-20T10:26:13.700Z,3196.00
2018-03-20T10:28:06.631Z,2676.00
2018-03-20T10:29:06.610Z,2680.00
2018-03-20T10:30:59.505Z,2688.00
2018-03-20T10:31:59.518Z,2688.00
2018-03-20T10:33:52.435Z,2680.00
2018-03-20T10:34:52.429Z,2848.00
2018-03-20T10:36:45.324Z,2620.00
2018-03-20T10:37:45.339Z,2640.00
2018-03-20T10:39:38.252Z,2624.00
2018-03-20T10:40:38.249Z,2620.00
2018-03-20T10:42:31.146Z,2620.00
2018-03-20T10:43:31.159Z,2608.00
2018-03-20T10:45:24.074Z,2604.00
2018-03-20T10:46:24.071Z,2604.00
2018-03-20T10:48:16.966Z,2600.00
2018-03-20T10:49:16.980Z,2600.00
2018-03-20T10:51:09.896Z,2596.00
2018-03-20T10:52:09.892Z,2640.00
2018-03-20T10:54:02.808Z,2588.00
2018-03-20T10:55:02.876Z,2580.00
2018-03-20T10:56:55.716Z,2580.00
2018-03-20T10:57:55.743Z,2580.00
2018-03-20T10:59:48.639Z,2592.00
2018-03-20T11:00:48.636Z,2588.00
2018-03-20T11:02:41.536Z,2560.00
2018-03-20T11:03:41.551Z,2564.00
2018-03-20T11:05:34.463Z,2564.00
2018-03-20T11:06:34.461Z,2564.00
2018-03-20T11:08:27.358Z,2564.00
2018-03-20T11:09:27.370Z,2592.00
2018-03-20T11:11:20.284Z,2620.00
2018-03-20T11:12:20.283Z,2572.00
2018-03-20T11:14:13.177Z,2612.00
2018-03-20T11:15:13.193Z,2552.00
2018-03-20T11:17:06.110Z,2552.00
2018-03-20T11:18:06.101Z,2552.00
2018-03-20T11:19:59.031Z,2552.00
2018-03-20T11:20:59.020Z,2552.00
2018-03-20T11:22:51.945Z,2544.00
2018-03-20T11:23:51.936Z,2544.00
2018-03-20T11:25:44.850Z,2544.00
2018-03-20T11:26:44.843Z,2528.00
2018-03-20T11:28:37.739Z,2532.00
2018-03-20T11:29:37.755Z,2548.00
2018-03-20T11:31:30.669Z,2564.00
2018-03-20T11:32:30.666Z,2648.00
2018-03-20T11:34:23.563Z,2852.00
2018-03-20T11:35:23.578Z,2560.00
2018-03-20T11:37:16.542Z,2680.00
2018-03-20T11:38:16.489Z,2544.00
2018-03-20T11:40:09.405Z,2536.00
2018-03-20T11:41:09.402Z,2552.00
2018-03-20T11:43:02.301Z,2548.00
2018-03-20T11:44:02.318Z,2572.00
2018-03-20T11:45:55.236Z,2692.00
2018-03-20T11:46:55.232Z,2808.00
2018-03-20T11:48:48.136Z,2780.00
2018-03-20T11:49:48.151Z,2584.00
2018-03-20T11:51:41.081Z,2604.00
2018-03-20T11:52:41.073Z,2592.00
2018-03-20T11:54:33.970Z,2540.00
2018-03-20T11:55:33.984Z,2540.00
2018-03-20T11:57:26.900Z,2544.00
2018-03-20T11:58:26.898Z,2532.00
2018-03-20T12:00:19.812Z,2516.00
2018-03-20T12:01:19.811Z,2512.00
2018-03-20T12:03:12.710Z,2548.00
2018-03-20T12:04:12.726Z,2536.00
2018-03-20T12:06:05.648Z,2520.00
2018-03-20T12:07:05.647Z,2516.00
2018-03-20T12:08:58.542Z,2536.00
2018-03-20T12:09:58.559Z,2556.00
2018-03-20T12:11:51.480Z,2656.00
2018-03-20T12:12:51.478Z,2664.00
2018-03-20T12:14:44.372Z,2784.00
2018-03-20T12:15:44.392Z,2816.00
2018-03-20T12:17:37.304Z,2660.00
2018-03-20T12:18:37.302Z,2636.00
2018-03-20T12:20:30.218Z,2704.00
2018-03-20T12:21:30.218Z,2764.00
2018-03-20T12:23:23.111Z,2808.00
2018-03-20T12:24:23.126Z,2824.00
2018-03-20T12:26:16.049Z,2956.00
2018-03-20T12:27:16.048Z,2920.00
2018-03-20T12:29:08.940Z,2804.00
2018-03-20T12:30:08.957Z,2872.00
2018-03-20T12:32:01.870Z,2952.00
2018-03-20T12:33:01.866Z,2888.00
2018-03-20T12:34:54.769Z,2844.00
2018-03-20T12:35:54.783Z,2864.00
2018-03-20T12:37:47.944Z,3112.00
2018-03-20T12:38:47.906Z,3356.00
2018-03-20T12:40:40.827Z,3360.00
2018-03-20T12:41:40.820Z,3104.00
2018-03-20T12:43:33.726Z,2720.00
2018-03-20T12:44:33.744Z,2696.00
2018-03-20T12:46:26.659Z,2696.00
2018-03-20T12:47:26.660Z,2736.00
2018-03-20T12:49:19.553Z,2776.00
2018-03-20T12:50:19.570Z,2860.00
2018-03-20T12:52:12.490Z,3416.00
2018-03-20T12:53:12.486Z,3348.00
2018-03-20T12:55:05.382Z,2944.00
2018-03-20T12:56:05.399Z,2804.00
2018-03-20T12:57:58.317Z,2748.00
2018-03-20T12:58:58.312Z,2708.00
2018-03-20T13:00:51.229Z,2776.00
2018-03-20T13:01:51.228Z,2844.00
2018-03-20T13:03:45.127Z,2900.00
2018-03-20T13:04:45.169Z,2888.00
2018-03-20T13:06:38.058Z,3148.00
2018-03-20T13:07:38.052Z,3192.00
2018-03-20T13:09:30.954Z,3164.00
2018-03-20T13:10:30.969Z,3384.00
2018-03-20T13:12:23.888Z,3052.00
2018-03-20T13:13:23.885Z,2984.00
2018-03-20T13:15:16.784Z,3008.00
2018-03-20T13:16:16.802Z,3264.00
2018-03-20T13:18:09.718Z,3096.00
2018-03-20T13:19:09.716Z,3044.00
2018-03-20T13:21:02.631Z,3120.00
2018-03-20T13:22:02.630Z,3156.00
2018-03-20T13:23:55.528Z,3160.00
2018-03-20T13:24:55.544Z,3212.00
2018-03-20T13:26:48.465Z,3384.00
2018-03-20T13:27:48.457Z,3476.00
2018-03-20T13:29:41.354Z,3236.00
2018-03-20T13:30:41.372Z,3204.00
2018-03-20T13:32:34.293Z,3072.00
2018-03-20T13:33:34.293Z,2904.00
2018-03-20T13:35:27.188Z,2744.00
2018-03-20T13:36:27.205Z,2676.00
2018-03-20T13:38:20.272Z,2704.00
2018-03-20T13:39:20.269Z,2724.00
2018-03-20T13:41:13.214Z,2844.00
2018-03-20T13:42:13.209Z,2792.00
2018-03-20T13:44:06.106Z,2776.00
2018-03-20T13:45:06.122Z,2868.00
2018-03-20T13:46:59.038Z,3060.00
2018-03-20T13:47:59.043Z,3260.00
2018-03-20T13:49:51.935Z,3132.00
2018-03-20T13:50:52.700Z,3076.00
2018-03-20T13:52:49.146Z,2864.00
2018-03-20T13:53:44.864Z,2868.00
2018-03-20T13:55:37.761Z,2900.00
2018-03-20T13:56:37.777Z,2820.00
2018-03-20T13:58:30.700Z,2952.00
2018-03-20T13:59:30.694Z,2828.00
2018-03-20T14:01:23.621Z,2748.00
2018-03-20T14:02:23.618Z,2732.00
2018-03-20T14:04:16.517Z,2672.00
2018-03-20T14:05:16.537Z,2660.00
2018-03-20T14:07:09.448Z,2736.00
2018-03-20T14:08:09.445Z,2640.00
2018-03-20T14:10:02.347Z,2716.00
2018-03-20T14:11:02.361Z,2828.00
2018-03-20T14:12:55.281Z,2872.00
2018-03-20T14:13:55.276Z,2912.00
2018-03-20T14:15:48.178Z,2860.00
2018-03-20T14:16:48.196Z,2940.00
2018-03-20T14:18:41.112Z,3116.00
2018-03-20T14:19:41.109Z,3320.00
2018-03-20T14:21:34.028Z,3328.00
2018-03-20T14:22:34.025Z,3360.00
2018-03-20T14:24:26.930Z,3224.00
2018-03-20T14:25:26.945Z,3008.00
2018-03-20T14:27:19.858Z,2848.00
2018-03-20T14:28:19.858Z,3004.00
2018-03-20T14:30:12.761Z,3000.00
2018-03-20T14:31:12.773Z,3044.00
2018-03-20T14:33:05.700Z,3208.00
2018-03-20T14:34:05.696Z,3268.00
2018-03-20T14:35:58.591Z,2904.00
2018-03-20T14:36:58.609Z,2728.00
2018-03-20T14:38:51.530Z,2628.00
2018-03-20T14:39:51.527Z,2608.00
2018-03-20T14:41:44.446Z,2632.00
2018-03-20T14:42:44.442Z,2716.00
2018-03-20T14:44:37.337Z,3060.00
2018-03-20T14:45:37.358Z,2784.00
2018-03-20T14:47:30.276Z,2820.00
2018-03-20T14:48:30.274Z,2920.00
2018-03-20T14:50:23.168Z,3040.00
2018-03-20T14:51:23.186Z,3200.00
2018-03-20T14:53:16.105Z,3652.00
2018-03-20T14:54:16.102Z,3828.00
2018-03-20T14:56:09.992Z,3480.00
2018-03-20T14:57:10.010Z,3772.00
2018-03-20T14:59:02.937Z,3444.00
2018-03-20T15:00:02.936Z,3100.00
2018-03-20T15:01:55.881Z,2960.00
2018-03-20T15:02:55.887Z,2956.00
2018-03-20T15:04:48.754Z,3092.00
2018-03-20T15:05:48.762Z,3256.00
2018-03-20T15:07:41.679Z,4296.00
2018-03-20T15:08:41.677Z,4864.00
2018-03-20T15:10:34.575Z,5092.00
2018-03-20T15:11:34.592Z,5440.00
2018-03-20T15:13:27.513Z,2928.00
2018-03-20T15:14:27.510Z,2836.00
2018-03-20T15:16:20.412Z,2732.00
2018-03-20T15:17:20.427Z,2904.00
2018-03-20T15:19:13.347Z,3120.00
2018-03-20T15:20:13.352Z,3168.00
2018-03-20T15:22:06.299Z,3348.00
2018-03-20T15:23:06.267Z,3664.00
2018-03-20T15:24:59.178Z,4172.00
2018-03-20T15:25:59.179Z,4764.00
2018-03-20T15:27:52.112Z,3380.00
2018-03-20T15:28:52.129Z,2912.00
2018-03-20T15:30:45.005Z,2696.00
2018-03-20T15:31:45.025Z,3036.00
2018-03-20T15:33:37.959Z,2744.00
2018-03-20T15:34:37.948Z,2716.00
2018-03-20T15:36:30.847Z,3048.00
2018-03-20T15:37:30.863Z,2916.00
2018-03-20T15:39:23.785Z,3448.00
2018-03-20T15:40:23.793Z,3220.00
2018-03-20T15:42:16.718Z,4092.00
2018-03-20T15:43:16.714Z,3224.00
2018-03-20T15:45:09.613Z,2800.00
2018-03-20T15:46:09.632Z,2288.00
2018-03-20T15:48:02.571Z,2320.00
2018-03-20T15:49:02.544Z,2388.00
2018-03-20T15:50:55.447Z,2528.00
2018-03-20T15:51:55.464Z,2720.00
2018-03-20T15:53:48.382Z,2472.00
2018-03-20T15:54:48.379Z,2564.00
2018-03-20T15:56:41.520Z,2312.00
2018-03-20T15:57:41.540Z,2304.00
2018-03-20T15:59:34.455Z,2288.00
2018-03-20T16:00:34.453Z,2284.00
2018-03-20T16:02:27.382Z,2268.00
2018-03-20T16:03:27.381Z,2268.00
2018-03-20T16:05:20.281Z,2344.00
2018-03-20T16:06:20.326Z,2428.00
2018-03-20T16:08:13.211Z,2708.00
2018-03-20T16:09:13.262Z,2376.00
2018-03-20T16:11:06.106Z,2208.00
2018-03-20T16:12:06.125Z,2068.00
2018-03-20T16:13:59.040Z,2036.00
2018-03-20T16:14:59.038Z,2028.00
2018-03-20T16:16:51.988Z,1992.00
2018-03-20T16:17:51.957Z,1984.00
2018-03-20T16:19:44.876Z,1968.00
2018-03-20T16:20:44.873Z,1948.00
2018-03-20T16:22:37.791Z,1928.00
2018-03-20T16:23:37.789Z,1916.00
2018-03-20T16:25:30.688Z,1884.00
2018-03-20T16:26:30.703Z,1872.00
2018-03-20T16:28:24.123Z,1840.00
2018-03-20T16:29:24.166Z,1828.00
2018-03-20T16:31:17.019Z,1796.00
2018-03-20T16:32:17.035Z,1784.00
2018-03-20T16:34:09.949Z,1756.00
2018-03-20T16:35:09.947Z,1748.00
2018-03-20T16:37:02.850Z,1736.00
2018-03-20T16:38:02.868Z,1768.00
2018-03-20T16:39:55.788Z,1804.00
2018-03-20T16:40:55.784Z,1756.00
2018-03-20T16:42:48.719Z,1664.00
2018-03-20T16:43:48.698Z,1656.00
2018-03-20T16:45:41.594Z,1628.00
2018-03-20T16:46:41.616Z,1684.00
2018-03-20T16:48:34.528Z,1748.00
2018-03-20T16:49:34.523Z,1876.00
2018-03-20T16:51:27.422Z,1908.00
2018-03-20T16:52:27.452Z,1580.00
2018-03-20T16:54:20.353Z,1396.00
2018-03-20T16:55:20.351Z,1384.00
2018-03-20T16:57:13.252Z,1340.00
2018-03-20T16:58:13.263Z,1344.00
2018-03-20T17:00:06.186Z,1344.00
2018-03-20T17:01:06.182Z,1344.00
2018-03-20T17:02:59.103Z,1256.00
2018-03-20T17:03:59.102Z,1148.00
2018-03-20T17:05:51.995Z,1172.00
2018-03-20T17:06:52.009Z,1180.00
2018-03-20T17:08:44.927Z,1032.00
2018-03-20T17:09:44.927Z,1000.00
2018-03-20T17:11:37.819Z,944.00
2018-03-20T17:12:37.835Z,920.00
2018-03-20T17:14:30.758Z,868.00
2018-03-20T17:15:30.753Z,836.00
2018-03-20T17:17:23.648Z,780.00
2018-03-20T17:18:23.662Z,756.00
2018-03-20T17:20:16.577Z,700.00
2018-03-20T17:21:16.578Z,672.00
2018-03-20T17:23:09.490Z,612.00
2018-03-20T17:24:09.487Z,584.00
2018-03-20T17:26:02.384Z,524.00
2018-03-20T17:27:02.402Z,496.00
2018-03-20T17:28:55.316Z,444.00
2018-03-20T17:29:55.313Z,416.00
2018-03-20T17:31:48.209Z,364.00
2018-03-20T17:32:48.222Z,336.00
2018-03-20T17:34:41.136Z,292.00
2018-03-20T17:35:41.132Z,268.00
2018-03-20T17:37:34.033Z,224.00
2018-03-20T17:38:34.047Z,200.00
2018-03-20T17:40:26.959Z,164.00
2018-03-20T17:41:26.968Z,148.00
2018-03-20T17:43:19.870Z,116.00
2018-03-20T17:44:19.867Z,104.00
2018-03-20T17:46:12.813Z,84.00
2018-03-20T17:47:12.778Z,72.00
2018-03-20T17:49:05.694Z,56.00
2018-03-20T17:50:05.687Z,48.00
2018-03-20T17:51:58.588Z,36.00
2018-03-20T17:52:58.605Z,32.00
2018-03-20T17:54:51.521Z,24.00
2018-03-20T17:55:51.558Z,20.00
2018-03-20T17:57:44.408Z,16.00
2018-03-20T17:58:44.423Z,12.00